createdAt,value
2018-12-19T00:00:34.111Z,1006.54
2018-12-19T00:01:34.768Z,1006.51
2018-12-19T00:02:37.517Z,1006.50
2018-12-19T00:03:38.142Z,1006.50
2018-12-19T00:04:39.888Z,1006.48
2018-12-19T00:05:40.527Z,1006.40
2018-12-19T00:06:41.217Z,1006.33
2018-12-19T00:07:41.884Z,1006.38
2018-12-19T00:08:42.570Z,1006.32
2018-12-19T00:09:43.202Z,1006.29
2018-12-19T00:10:43.893Z,1006.23
2018-12-19T00:11:44.540Z,1006.21
2018-12-19T00:12:46.276Z,1006.13
2018-12-19T00:13:46.907Z,1006.17
2018-12-19T00:14:47.615Z,1006.14
2018-12-19T00:15:48.256Z,1006.11
2018-12-19T00:16:48.954Z,1006.10
2018-12-19T00:17:49.602Z,1006.11
2018-12-19T00:18:50.294Z,1006.09
2018-12-19T00:19:50.941Z,1006.11
2018-12-19T00:20:52.708Z,1006.08
2018-12-19T00:21:53.351Z,1006.14
2018-12-19T00:22:54.003Z,1006.09
2018-12-19T00:23:54.665Z,1006.04
2018-12-19T00:24:55.360Z,1006.00
2018-12-19T00:25:56.009Z,1005.94
2018-12-19T00:26:56.696Z,1005.97
2018-12-19T00:27:59.320Z,1005.92
2018-12-19T00:29:02.063Z,1005.97
2018-12-19T00:30:02.688Z,1005.98
2018-12-19T00:31:10.365Z,1006.05
2018-12-19T00:32:11.535Z,1006.05
2018-12-19T00:33:12.197Z,1006.00
2018-12-19T00:34:12.870Z,1005.94
2018-12-19T00:35:22.373Z,1005.92
2018-12-19T00:36:23.078Z,1005.85
2018-12-19T00:37:30.359Z,1006.00
2018-12-19T00:38:31.045Z,1005.91
2018-12-19T00:39:32.735Z,1005.88
2018-12-19T00:40:33.403Z,1005.90
2018-12-19T00:41:34.085Z,1005.89
2018-12-19T00:42:34.689Z,1005.89
2018-12-19T00:43:35.409Z,1005.92
2018-12-19T00:44:36.122Z,1005.94
2018-12-19T00:45:38.829Z,1005.90
2018-12-19T00:46:39.485Z,1005.92
2018-12-19T00:47:40.134Z,1006.00
2018-12-19T00:48:40.835Z,1006.03
2018-12-19T00:49:42.514Z,1006.09
2018-12-19T00:50:43.171Z,1006.08
2018-12-19T00:51:50.316Z,1006.09
2018-12-19T00:52:50.985Z,1006.11
2018-12-19T00:53:53.709Z,1006.09
2018-12-19T00:54:54.363Z,1006.10
2018-12-19T00:56:02.829Z,1006.07
2018-12-19T00:57:03.519Z,1006.09
2018-12-19T00:58:04.158Z,1006.11
2018-12-19T00:59:04.838Z,1006.10
2018-12-19T01:00:06.560Z,1006.12
2018-12-19T01:01:07.266Z,1006.07
2018-12-19T01:02:22.880Z,1006.10
2018-12-19T01:03:23.499Z,1006.05
2018-12-19T01:04:25.223Z,1006.04
2018-12-19T01:05:25.888Z,1006.04
2018-12-19T01:06:33.399Z,1006.10
2018-12-19T01:07:34.090Z,1006.01
2018-12-19T01:08:35.801Z,1006.01
2018-12-19T01:09:36.455Z,1006.00
2018-12-19T01:10:37.575Z,1006.01
2018-12-19T01:11:38.210Z,1005.93
2018-12-19T01:12:39.915Z,1005.85
2018-12-19T01:13:40.584Z,1005.82
2018-12-19T01:14:41.243Z,1005.84
2018-12-19T01:15:41.900Z,1005.82
2018-12-19T01:16:43.658Z,1005.85
2018-12-19T01:17:44.266Z,1005.78
2018-12-19T01:18:46.002Z,1005.83
2018-12-19T01:19:46.641Z,1005.93
2018-12-19T01:20:47.321Z,1005.78
2018-12-19T01:21:48.019Z,1005.76
2018-12-19T01:22:48.673Z,1005.75
2018-12-19T01:23:49.333Z,1005.65
2018-12-19T01:24:57.900Z,1005.66
2018-12-19T01:25:58.634Z,1005.63
2018-12-19T01:27:01.281Z,1005.66
2018-12-19T01:28:01.935Z,1005.63
2018-12-19T01:29:02.621Z,1005.59
2018-12-19T01:30:03.317Z,1005.57
2018-12-19T01:31:29.882Z,1005.55
2018-12-19T01:32:30.540Z,1005.54
2018-12-19T01:34:42.541Z,1005.43
2018-12-19T01:35:44.242Z,1005.42
2018-12-19T01:36:44.933Z,1005.44
2018-12-19T01:37:53.410Z,1005.41
2018-12-19T01:38:54.041Z,1005.43
2018-12-19T01:39:54.708Z,1005.42
2018-12-19T01:40:55.375Z,1005.47
2018-12-19T01:42:03.860Z,1005.46
2018-12-19T01:43:04.576Z,1005.48
2018-12-19T01:44:06.259Z,1005.47
2018-12-19T01:45:06.882Z,1005.47
2018-12-19T01:46:07.558Z,1005.49
2018-12-19T01:47:08.202Z,1005.48
2018-12-19T01:48:08.901Z,1005.38
2018-12-19T01:49:09.573Z,1005.34
2018-12-19T01:50:25.959Z,1005.35
2018-12-19T01:51:26.629Z,1005.35
2018-12-19T01:52:35.361Z,1005.39
2018-12-19T01:53:36.040Z,1005.40
2018-12-19T01:54:37.739Z,1005.43
2018-12-19T01:55:38.379Z,1005.44
2018-12-19T01:56:39.051Z,1005.41
2018-12-19T01:57:39.722Z,1005.43
2018-12-19T01:58:48.428Z,1005.41
2018-12-19T01:59:49.033Z,1005.38
2018-12-19T02:00:50.748Z,1005.31
2018-12-19T02:01:51.424Z,1005.33
2018-12-19T02:02:52.105Z,1005.42
2018-12-19T02:03:52.760Z,1005.33
2018-12-19T02:04:54.512Z,1005.30
2018-12-19T02:05:55.140Z,1005.42
2018-12-19T02:06:56.841Z,1005.44
2018-12-19T02:07:57.498Z,1005.38
2018-12-19T02:08:59.234Z,1005.39
2018-12-19T02:09:59.892Z,1005.38
2018-12-19T02:11:01.581Z,1005.39
2018-12-19T02:12:02.278Z,1005.36
2018-12-19T02:13:02.916Z,1005.42
2018-12-19T02:14:03.624Z,1005.41
2018-12-19T02:15:05.211Z,1005.39
2018-12-19T02:16:05.837Z,1005.45
2018-12-19T02:17:08.573Z,1005.45
2018-12-19T02:18:09.269Z,1005.38
2018-12-19T02:19:18.830Z,1005.45
2018-12-19T02:20:19.472Z,1005.50
2018-12-19T02:21:21.214Z,1005.52
2018-12-19T02:22:21.871Z,1005.46
2018-12-19T02:23:22.536Z,1005.40
2018-12-19T02:24:23.221Z,1005.50
2018-12-19T02:25:44.861Z,1005.50
2018-12-19T02:26:45.504Z,1005.52
2018-12-19T02:27:46.223Z,1005.54
2018-12-19T02:28:46.938Z,1005.55
2018-12-19T02:29:55.339Z,1005.56
2018-12-19T02:30:56.044Z,1005.60
2018-12-19T02:31:58.740Z,1005.68
2018-12-19T02:32:59.613Z,1005.71
2018-12-19T02:34:01.312Z,1005.69
2018-12-19T02:35:01.991Z,1005.71
2018-12-19T02:36:04.718Z,1005.74
2018-12-19T02:37:05.398Z,1005.76
2018-12-19T02:38:14.855Z,1005.81
2018-12-19T02:39:15.515Z,1005.76
2018-12-19T02:40:16.218Z,1005.74
2018-12-19T02:41:16.876Z,1005.73
2018-12-19T02:42:17.591Z,1005.76
2018-12-19T02:43:18.246Z,1005.77
2018-12-19T02:44:42.947Z,1005.72
2018-12-19T02:45:43.507Z,1005.72
2018-12-19T02:46:44.204Z,1005.64
2018-12-19T02:47:44.891Z,1005.60
2018-12-19T02:48:52.456Z,1005.59
2018-12-19T02:49:53.073Z,1005.58
2018-12-19T02:50:53.745Z,1005.67
2018-12-19T02:51:54.385Z,1005.59
2018-12-19T02:52:55.085Z,1005.59
2018-12-19T02:53:55.726Z,1005.51
2018-12-19T02:55:04.420Z,1005.57
2018-12-19T02:56:05.077Z,1005.51
2018-12-19T02:57:12.427Z,1005.52
2018-12-19T02:58:13.053Z,1005.52
2018-12-19T02:59:15.798Z,1005.47
2018-12-19T03:00:16.480Z,1005.46
2018-12-19T03:01:17.193Z,1005.48
2018-12-19T03:02:17.803Z,1005.50
2018-12-19T03:03:18.504Z,1005.51
2018-12-19T03:04:19.143Z,1005.52
2018-12-19T03:05:19.843Z,1005.55
2018-12-19T03:06:20.508Z,1005.50
2018-12-19T03:07:42.214Z,1005.60
2018-12-19T03:08:42.811Z,1005.61
2018-12-19T03:09:43.521Z,1005.63
2018-12-19T03:10:44.175Z,1005.68
2018-12-19T03:11:52.857Z,1005.68
2018-12-19T03:12:53.739Z,1005.69
2018-12-19T03:13:54.382Z,1005.64
2018-12-19T03:14:55.077Z,1005.66
2018-12-19T03:16:12.346Z,1005.70
2018-12-19T03:17:12.985Z,1005.66
2018-12-19T03:18:13.690Z,1005.66
2018-12-19T03:19:14.332Z,1005.61
2018-12-19T03:20:21.881Z,1005.61
2018-12-19T03:21:22.540Z,1005.53
2018-12-19T03:22:23.234Z,1005.60
2018-12-19T03:23:23.959Z,1005.56
2018-12-19T03:24:24.640Z,1005.61
2018-12-19T03:25:25.268Z,1005.59
2018-12-19T03:26:25.926Z,1005.63
2018-12-19T03:27:26.575Z,1005.57
2018-12-19T03:28:55.831Z,1005.67
2018-12-19T03:29:56.306Z,1005.67
2018-12-19T03:31:03.845Z,1005.65
2018-12-19T03:32:04.515Z,1005.70
2018-12-19T03:33:05.159Z,1005.65
2018-12-19T03:34:05.827Z,1005.70
2018-12-19T03:35:06.513Z,1005.71
2018-12-19T03:36:07.179Z,1005.70
2018-12-19T03:37:08.870Z,1005.70
2018-12-19T03:38:09.538Z,1005.75
2018-12-19T03:39:17.017Z,1005.68
2018-12-19T03:40:17.699Z,1005.68
2018-12-19T03:41:18.321Z,1005.62
2018-12-19T03:42:18.980Z,1005.63
2018-12-19T03:43:19.666Z,1005.57
2018-12-19T03:44:20.335Z,1005.55
2018-12-19T03:45:21.028Z,1005.51
2018-12-19T03:46:21.686Z,1005.48
2018-12-19T03:47:23.407Z,1005.41
2018-12-19T03:48:24.041Z,1005.38
2018-12-19T03:49:24.727Z,1005.37
2018-12-19T03:50:25.393Z,1005.35
2018-12-19T03:51:27.155Z,1005.37
2018-12-19T03:52:27.755Z,1005.29
2018-12-19T03:53:30.496Z,1005.30
2018-12-19T03:54:31.149Z,1005.30
2018-12-19T03:55:38.398Z,1005.29
2018-12-19T03:56:39.037Z,1005.24
2018-12-19T03:57:40.748Z,1005.17
2018-12-19T03:58:41.463Z,1005.11
2018-12-19T03:59:48.852Z,1005.11
2018-12-19T04:00:49.518Z,1005.19
2018-12-19T04:01:51.236Z,1005.15
2018-12-19T04:02:51.879Z,1005.10
2018-12-19T04:03:52.564Z,1005.12
2018-12-19T04:04:53.233Z,1005.10
2018-12-19T04:05:53.912Z,1005.03
2018-12-19T04:06:54.573Z,1004.98
2018-12-19T04:07:55.279Z,1005.00
2018-12-19T04:08:55.920Z,1004.98
2018-12-19T04:09:57.962Z,1004.93
2018-12-19T04:10:57.267Z,1004.90
2018-12-19T04:11:57.958Z,1005.01
2018-12-19T04:12:58.599Z,1004.97
2018-12-19T04:13:59.297Z,1004.94
2018-12-19T04:14:59.934Z,1004.94
2018-12-19T04:16:00.679Z,1004.87
2018-12-19T04:17:01.315Z,1004.87
2018-12-19T04:18:01.980Z,1004.82
2018-12-19T04:19:02.649Z,1004.78
2018-12-19T04:20:03.321Z,1004.77
2018-12-19T04:21:03.974Z,1004.77
2018-12-19T04:22:05.689Z,1004.74
2018-12-19T04:23:06.345Z,1004.77
2018-12-19T04:24:07.047Z,1004.72
2018-12-19T04:25:07.690Z,1004.77
2018-12-19T04:26:08.372Z,1004.69
2018-12-19T04:27:09.064Z,1004.76
2018-12-19T04:28:09.825Z,1004.71
2018-12-19T04:29:10.517Z,1004.67
2018-12-19T04:30:12.186Z,1004.65
2018-12-19T04:31:12.847Z,1004.65
2018-12-19T04:32:13.553Z,1004.68
2018-12-19T04:33:14.472Z,1004.69
2018-12-19T04:34:15.186Z,1004.62
2018-12-19T04:35:15.831Z,1004.59
2018-12-19T04:36:17.557Z,1004.53
2018-12-19T04:37:18.211Z,1004.58
2018-12-19T04:38:18.901Z,1004.69
2018-12-19T04:39:19.559Z,1004.67
2018-12-19T04:40:20.258Z,1004.71
2018-12-19T04:41:20.923Z,1004.75
2018-12-19T04:42:21.610Z,1004.74
2018-12-19T04:43:22.241Z,1004.73
2018-12-19T04:44:22.941Z,1004.78
2018-12-19T04:45:23.575Z,1004.77
2018-12-19T04:46:24.280Z,1004.81
2018-12-19T04:47:24.919Z,1004.78
2018-12-19T04:48:25.524Z,1004.76
2018-12-19T04:49:26.430Z,1004.77
2018-12-19T04:50:29.315Z,1004.77
2018-12-19T04:51:29.825Z,1004.76
2018-12-19T04:52:32.405Z,1004.81
2018-12-19T04:53:32.905Z,1004.80
2018-12-19T04:54:42.363Z,1004.74
2018-12-19T04:55:43.813Z,1004.72
2018-12-19T04:56:45.333Z,1004.74
2018-12-19T04:57:45.813Z,1004.75
2018-12-19T04:58:46.369Z,1004.73
2018-12-19T04:59:46.878Z,1004.66
2018-12-19T05:00:49.458Z,1004.71
2018-12-19T05:01:49.944Z,1004.71
2018-12-19T05:02:50.505Z,1004.68
2018-12-19T05:03:50.968Z,1004.71
2018-12-19T05:04:51.532Z,1004.73
2018-12-19T05:05:52.007Z,1004.74
2018-12-19T05:06:52.555Z,1004.72
2018-12-19T05:07:53.109Z,1004.80
2018-12-19T05:08:53.612Z,1004.84
2018-12-19T05:09:54.080Z,1004.86
2018-12-19T05:10:56.584Z,1004.92
2018-12-19T05:11:57.063Z,1004.92
2018-12-19T05:12:57.607Z,1004.91
2018-12-19T05:13:58.097Z,1004.92
2018-12-19T05:14:59.678Z,1004.92
2018-12-19T05:16:00.160Z,1004.92
2018-12-19T05:17:02.675Z,1004.96
2018-12-19T05:18:03.145Z,1004.92
2018-12-19T05:19:03.692Z,1004.93
2018-12-19T05:20:04.200Z,1004.94
2018-12-19T05:21:04.746Z,1004.94
2018-12-19T05:22:05.205Z,1004.98
2018-12-19T05:23:07.832Z,1005.02
2018-12-19T05:24:08.316Z,1004.96
2018-12-19T05:25:08.862Z,1004.96
2018-12-19T05:26:09.335Z,1005.01
2018-12-19T05:27:10.920Z,1005.03
2018-12-19T05:28:11.437Z,1004.99
2018-12-19T05:29:11.882Z,1005.06
2018-12-19T05:30:12.376Z,1005.02
2018-12-19T05:31:14.814Z,1005.04
2018-12-19T05:32:15.297Z,1005.02
2018-12-19T05:33:16.897Z,1005.03
2018-12-19T05:34:20.439Z,1005.24
2018-12-19T05:35:20.917Z,1005.08
2018-12-19T05:36:21.420Z,1005.05
2018-12-19T05:37:23.813Z,1005.10
2018-12-19T05:38:24.402Z,1005.09
2018-12-19T05:39:24.919Z,1005.12
2018-12-19T05:40:25.449Z,1005.14
2018-12-19T05:41:25.939Z,1005.08
2018-12-19T05:42:27.496Z,1005.34
2018-12-19T05:43:28.026Z,1005.16
2018-12-19T05:44:28.545Z,1005.14
2018-12-19T05:45:29.027Z,1005.12
2018-12-19T05:46:29.586Z,1005.10
2018-12-19T05:47:30.064Z,1005.15
2018-12-19T05:48:30.607Z,1005.15
2018-12-19T05:49:31.108Z,1005.20
2018-12-19T05:50:32.682Z,1005.21
2018-12-19T05:51:33.173Z,1005.16
2018-12-19T05:52:34.737Z,1005.12
2018-12-19T05:53:35.253Z,1005.29
2018-12-19T05:54:35.790Z,1005.28
2018-12-19T05:55:36.279Z,1005.21
2018-12-19T05:56:37.847Z,1005.28
2018-12-19T05:57:38.330Z,1005.28
2018-12-19T05:58:39.901Z,1005.24
2018-12-19T05:59:40.445Z,1005.25
2018-12-19T06:00:40.932Z,1005.30
2018-12-19T06:01:41.700Z,1005.30
2018-12-19T06:02:42.276Z,1005.29
2018-12-19T06:03:43.426Z,1005.31
2018-12-19T06:04:44.854Z,1005.25
2018-12-19T06:05:45.969Z,1005.30
2018-12-19T06:06:47.008Z,1005.30
2018-12-19T06:07:47.654Z,1005.32
2018-12-19T06:08:48.354Z,1005.33
2018-12-19T06:09:49.004Z,1005.27
2018-12-19T06:10:50.225Z,1005.27
2018-12-19T06:11:50.859Z,1005.30
2018-12-19T06:12:51.571Z,1005.28
2018-12-19T06:13:52.204Z,1005.34
2018-12-19T06:14:52.912Z,1005.41
2018-12-19T06:15:53.547Z,1005.36
2018-12-19T06:16:56.304Z,1005.41
2018-12-19T06:17:56.932Z,1005.41
2018-12-19T06:18:57.631Z,1005.43
2018-12-19T06:19:58.282Z,1005.39
2018-12-19T06:20:58.995Z,1005.47
2018-12-19T06:21:59.629Z,1005.47
2018-12-19T06:23:01.365Z,1005.45
2018-12-19T06:24:02.082Z,1005.37
2018-12-19T06:25:02.831Z,1005.44
2018-12-19T06:26:03.449Z,1005.35
2018-12-19T06:27:04.149Z,1005.34
2018-12-19T06:28:04.792Z,1005.37
2018-12-19T06:29:05.477Z,1005.41
2018-12-19T06:30:06.124Z,1005.44
2018-12-19T06:31:06.839Z,1005.42
2018-12-19T06:32:07.484Z,1005.41
2018-12-19T06:33:08.174Z,1005.42
2018-12-19T06:34:08.818Z,1005.40
2018-12-19T06:35:09.508Z,1005.39
2018-12-19T06:36:10.165Z,1005.51
2018-12-19T06:37:10.848Z,1005.51
2018-12-19T06:38:11.518Z,1005.53
2018-12-19T06:39:12.219Z,1005.50
2018-12-19T06:40:12.852Z,1005.55
2018-12-19T06:41:13.548Z,1005.48
2018-12-19T06:42:14.117Z,1005.50
2018-12-19T06:43:15.005Z,1005.60
2018-12-19T06:44:15.645Z,1005.68
2018-12-19T06:45:16.397Z,1005.50
2018-12-19T06:46:17.035Z,1005.58
2018-12-19T06:47:17.814Z,1005.60
2018-12-19T06:48:18.482Z,1005.64
2018-12-19T06:49:19.240Z,1005.61
2018-12-19T06:50:19.917Z,1005.63
2018-12-19T06:51:20.580Z,1005.61
2018-12-19T06:52:21.254Z,1005.70
2018-12-19T06:53:22.017Z,1005.62
2018-12-19T06:54:22.672Z,1005.62
2018-12-19T06:55:23.371Z,1005.54
2018-12-19T06:56:24.110Z,1005.64
2018-12-19T06:57:24.736Z,1005.67
2018-12-19T06:58:25.428Z,1005.62
2018-12-19T06:59:26.078Z,1005.63
2018-12-19T07:00:26.769Z,1005.63
2018-12-19T07:01:27.444Z,1005.61
2018-12-19T07:02:28.122Z,1005.71
2018-12-19T07:03:28.804Z,1005.63
2018-12-19T07:04:29.481Z,1005.71
2018-12-19T07:05:30.124Z,1005.73
2018-12-19T07:06:30.827Z,1005.74
2018-12-19T07:07:31.449Z,1005.69
2018-12-19T07:08:32.165Z,1005.73
2018-12-19T07:09:32.645Z,1005.67
2018-12-19T07:10:39.143Z,1005.71
2018-12-19T07:11:34.398Z,1005.77
2018-12-19T07:12:35.192Z,1005.79
2018-12-19T07:13:35.805Z,1005.75
2018-12-19T07:14:36.392Z,1005.79
2018-12-19T07:15:36.908Z,1005.82
2018-12-19T07:16:43.304Z,1005.78
2018-12-19T07:17:37.930Z,1005.74
2018-12-19T07:18:38.455Z,1005.76
2018-12-19T07:19:38.976Z,1005.77
2018-12-19T07:20:39.524Z,1005.77
2018-12-19T07:21:40.004Z,1005.76
2018-12-19T07:22:40.546Z,1005.80
2018-12-19T07:23:41.053Z,1005.82
2018-12-19T07:24:41.584Z,1005.76
2018-12-19T07:25:42.072Z,1005.82
2018-12-19T07:26:42.655Z,1005.87
2018-12-19T07:27:43.120Z,1005.85
2018-12-19T07:28:43.656Z,1005.87
2018-12-19T07:29:44.142Z,1005.92
2018-12-19T07:30:44.691Z,1005.97
2018-12-19T07:31:45.172Z,1005.95
2018-12-19T07:32:45.674Z,1005.95
2018-12-19T07:33:46.150Z,1005.99
2018-12-19T07:34:46.665Z,1005.96
2018-12-19T07:35:47.124Z,1005.99
2018-12-19T07:36:47.615Z,1006.01
2018-12-19T07:37:48.124Z,1006.07
2018-12-19T07:38:48.582Z,1005.97
2018-12-19T07:39:49.099Z,1005.98
2018-12-19T07:40:49.623Z,1005.94
2018-12-19T07:41:50.598Z,1006.08
2018-12-19T07:42:51.068Z,1006.00
2018-12-19T07:43:51.560Z,1006.03
2018-12-19T07:44:52.046Z,1006.05
2018-12-19T07:45:52.540Z,1006.03
2018-12-19T07:46:53.643Z,1006.04
2018-12-19T07:47:54.111Z,1006.09
2018-12-19T07:48:55.142Z,1006.12
2018-12-19T07:49:55.610Z,1006.10
2018-12-19T07:50:56.115Z,1006.07
2018-12-19T07:51:56.573Z,1006.03
2018-12-19T07:52:57.182Z,1006.03
2018-12-19T07:53:57.662Z,1006.06
2018-12-19T07:54:58.314Z,1006.08
2018-12-19T07:55:58.822Z,1006.10
2018-12-19T07:56:59.753Z,1006.05
2018-12-19T07:58:00.247Z,1006.10
2018-12-19T07:59:00.751Z,1006.07
2018-12-19T08:00:01.225Z,1006.12
2018-12-19T08:01:01.714Z,1006.11
2018-12-19T08:02:02.746Z,1006.13
2018-12-19T08:03:03.247Z,1006.11
2018-12-19T08:04:03.723Z,1006.22
2018-12-19T08:05:04.218Z,1006.18
2018-12-19T08:06:04.722Z,1006.13
2018-12-19T08:07:05.364Z,1006.15
2018-12-19T08:08:05.857Z,1006.14
2018-12-19T08:09:06.519Z,1006.17
2018-12-19T08:10:07.289Z,1006.14
2018-12-19T08:11:07.786Z,1006.14
2018-12-19T08:12:08.282Z,1006.16
2018-12-19T08:13:08.798Z,1006.21
2018-12-19T08:14:11.454Z,1006.23
2018-12-19T08:15:11.952Z,1006.24
2018-12-19T08:16:12.420Z,1006.21
2018-12-19T08:17:13.296Z,1006.26
2018-12-19T08:18:14.205Z,1006.29
2018-12-19T08:19:14.950Z,1006.32
2018-12-19T08:20:15.467Z,1006.29
2018-12-19T08:21:15.949Z,1006.29
2018-12-19T08:22:16.422Z,1006.30
2018-12-19T08:23:18.060Z,1006.32
2018-12-19T08:24:18.542Z,1006.31
2018-12-19T08:25:19.061Z,1006.29
2018-12-19T08:26:19.534Z,1006.29
2018-12-19T08:27:19.997Z,1006.31
2018-12-19T08:28:20.655Z,1006.30
2018-12-19T08:29:21.141Z,1006.37
2018-12-19T08:30:21.634Z,1006.39
2018-12-19T08:31:22.250Z,1006.41
2018-12-19T08:32:22.697Z,1006.38
2018-12-19T08:33:23.210Z,1006.39
2018-12-19T08:34:23.743Z,1006.40
2018-12-19T08:35:24.196Z,1006.41
2018-12-19T08:36:24.678Z,1006.39
2018-12-19T08:37:25.173Z,1006.43
2018-12-19T08:38:25.644Z,1006.41
2018-12-19T08:39:26.123Z,1006.41
2018-12-19T08:40:26.637Z,1006.50
2018-12-19T08:41:27.307Z,1006.40
2018-12-19T08:42:27.796Z,1006.50
2018-12-19T08:43:28.276Z,1006.44
2018-12-19T08:44:28.814Z,1006.48
2018-12-19T08:45:29.589Z,1006.47
2018-12-19T08:46:30.738Z,1006.43
2018-12-19T08:47:30.711Z,1006.47
2018-12-19T08:48:31.771Z,1006.49
2018-12-19T08:49:31.752Z,1006.51
2018-12-19T08:50:32.264Z,1006.52
2018-12-19T08:51:32.719Z,1006.53
2018-12-19T08:52:33.312Z,1006.57
2018-12-19T08:53:33.840Z,1006.59
2018-12-19T08:54:34.278Z,1006.59
2018-12-19T08:55:34.789Z,1006.63
2018-12-19T08:56:35.257Z,1006.61
2018-12-19T08:57:35.756Z,1006.70
2018-12-19T08:58:36.224Z,1006.65
2018-12-19T08:59:36.723Z,1006.70
2018-12-19T09:00:37.230Z,1006.69
2018-12-19T09:01:37.805Z,1006.69
2018-12-19T09:02:38.185Z,1006.63
2018-12-19T09:03:38.851Z,1006.66
2018-12-19T09:04:39.463Z,1006.63
2018-12-19T09:05:39.972Z,1006.68
2018-12-19T09:06:40.490Z,1006.70
2018-12-19T09:07:41.104Z,1006.69
2018-12-19T09:08:41.612Z,1006.67
2018-12-19T09:09:42.245Z,1006.68
2018-12-19T09:10:42.792Z,1006.74
2018-12-19T09:11:43.404Z,1006.69
2018-12-19T09:12:43.874Z,1006.71
2018-12-19T09:13:44.549Z,1006.70
2018-12-19T09:14:45.021Z,1006.68
2018-12-19T09:15:45.681Z,1006.68
2018-12-19T09:16:46.162Z,1006.72
2018-12-19T09:17:46.809Z,1006.75
2018-12-19T09:18:47.294Z,1006.74
2018-12-19T09:19:47.976Z,1006.71
2018-12-19T09:20:48.433Z,1006.75
2018-12-19T09:21:49.084Z,1006.82
2018-12-19T09:22:49.576Z,1006.76
2018-12-19T09:23:50.238Z,1006.85
2018-12-19T09:24:50.739Z,1006.82
2018-12-19T09:25:53.003Z,1006.87
2018-12-19T09:26:52.880Z,1006.81
2018-12-19T09:27:53.531Z,1006.84
2018-12-19T09:28:54.859Z,1006.89
2018-12-19T09:29:55.504Z,1006.85
2018-12-19T09:30:55.977Z,1006.88
2018-12-19T09:31:56.641Z,1006.87
2018-12-19T09:32:57.202Z,1006.93
2018-12-19T09:33:57.769Z,1006.92
2018-12-19T09:34:58.258Z,1006.96
2018-12-19T09:35:58.918Z,1006.94
2018-12-19T09:36:59.402Z,1007.00
2018-12-19T09:38:00.050Z,1006.98
2018-12-19T09:39:00.529Z,1007.01
2018-12-19T09:40:01.206Z,1007.00
2018-12-19T09:41:01.683Z,1007.00
2018-12-19T09:42:02.325Z,1007.00
2018-12-19T09:43:02.814Z,1007.05
2018-12-19T09:44:03.518Z,1007.02
2018-12-19T09:45:03.955Z,1006.99
2018-12-19T09:46:04.920Z,1007.02
2018-12-19T09:47:06.029Z,1007.05
2018-12-19T09:48:06.786Z,1006.98
2018-12-19T09:49:12.333Z,1007.01
2018-12-19T09:50:08.628Z,1006.99
2018-12-19T09:51:09.538Z,1007.00
2018-12-19T09:52:11.330Z,1007.01
2018-12-19T09:53:12.075Z,1007.03
2018-12-19T09:54:12.976Z,1007.01
2018-12-19T09:55:13.628Z,1007.06
2018-12-19T09:56:14.675Z,1007.03
2018-12-19T09:57:15.299Z,1007.07
2018-12-19T09:58:16.063Z,1007.05
2018-12-19T09:59:17.188Z,1007.04
2018-12-19T10:00:18.005Z,1007.01
2018-12-19T10:01:19.156Z,1007.02
2018-12-19T10:02:20.283Z,1007.01
2018-12-19T10:03:20.992Z,1007.01
2018-12-19T10:04:22.032Z,1006.91
2018-12-19T10:05:22.741Z,1006.91
2018-12-19T10:06:23.295Z,1006.89
2018-12-19T10:07:23.935Z,1006.91
2018-12-19T10:08:24.632Z,1006.94
2018-12-19T10:09:25.553Z,1006.86
2018-12-19T10:10:26.077Z,1006.88
2018-12-19T10:11:27.099Z,1006.96
2018-12-19T10:12:27.935Z,1006.93
2018-12-19T10:13:28.492Z,1006.91
2018-12-19T10:14:29.377Z,1006.88
2018-12-19T10:15:30.047Z,1006.93
2018-12-19T10:16:31.022Z,1006.94
2018-12-19T10:17:31.821Z,1006.98
2018-12-19T10:18:32.586Z,1006.92
2018-12-19T10:19:33.265Z,1006.89
2018-12-19T10:20:34.335Z,1006.96
2018-12-19T10:21:35.337Z,1006.91
2018-12-19T10:22:36.181Z,1006.88
2018-12-19T10:23:37.319Z,1006.95
2018-12-19T10:24:38.548Z,1006.95
2018-12-19T10:25:39.421Z,1006.94
2018-12-19T10:26:40.141Z,1006.96
2018-12-19T10:27:40.765Z,1006.96
2018-12-19T10:28:42.373Z,1006.89
2018-12-19T10:29:43.479Z,1006.93
2018-12-19T10:30:44.335Z,1006.94
2018-12-19T10:31:45.013Z,1006.86
2018-12-19T10:32:45.690Z,1006.88
2018-12-19T10:33:46.342Z,1006.86
2018-12-19T10:34:47.129Z,1006.89
2018-12-19T10:35:47.825Z,1006.92
2018-12-19T10:36:48.574Z,1006.85
2018-12-19T10:37:49.246Z,1006.84
2018-12-19T10:38:50.014Z,1006.81
2018-12-19T10:39:50.679Z,1006.86
2018-12-19T10:40:51.462Z,1006.88
2018-12-19T10:41:52.140Z,1006.85
2018-12-19T10:42:52.910Z,1006.83
2018-12-19T10:43:53.591Z,1006.82
2018-12-19T10:44:54.357Z,1006.80
2018-12-19T10:45:55.022Z,1006.76
2018-12-19T10:46:55.879Z,1006.79
2018-12-19T10:47:56.479Z,1006.76
2018-12-19T10:48:57.256Z,1006.78
2018-12-19T10:49:57.943Z,1006.81
2018-12-19T10:50:58.740Z,1006.75
2018-12-19T10:51:59.351Z,1006.80
2018-12-19T10:53:00.022Z,1006.76
2018-12-19T10:54:00.675Z,1006.73
2018-12-19T10:55:01.408Z,1006.75
2018-12-19T10:56:02.069Z,1006.70
2018-12-19T10:57:03.796Z,1006.74
2018-12-19T10:58:04.433Z,1006.69
2018-12-19T10:59:05.218Z,1006.72
2018-12-19T11:00:05.872Z,1006.77
2018-12-19T11:01:06.672Z,1006.77
2018-12-19T11:02:07.325Z,1006.78
2018-12-19T11:03:08.142Z,1006.78
2018-12-19T11:04:08.775Z,1006.77
2018-12-19T11:05:09.634Z,1006.76
2018-12-19T11:06:10.210Z,1006.76
2018-12-19T11:07:11.002Z,1006.82
2018-12-19T11:08:11.719Z,1006.77
2018-12-19T11:09:12.455Z,1006.79
2018-12-19T11:10:13.125Z,1006.78
2018-12-19T11:11:13.899Z,1006.76
2018-12-19T11:12:14.544Z,1006.80
2018-12-19T11:13:15.351Z,1006.79
2018-12-19T11:14:16.445Z,1006.80
2018-12-19T11:15:16.798Z,1006.76
2018-12-19T11:16:17.447Z,1006.78
2018-12-19T11:17:18.231Z,1006.76
2018-12-19T11:18:18.892Z,1006.80
2018-12-19T11:19:19.715Z,1006.81
2018-12-19T11:20:20.338Z,1006.81
2018-12-19T11:21:21.131Z,1006.84
2018-12-19T11:22:21.795Z,1006.88
2018-12-19T11:23:22.599Z,1006.87
2018-12-19T11:24:23.224Z,1006.83
2018-12-19T11:25:24.359Z,1006.85
2018-12-19T11:26:25.026Z,1006.89
2018-12-19T11:27:25.804Z,1006.83
2018-12-19T11:28:26.439Z,1006.88
2018-12-19T11:29:27.240Z,1006.85
2018-12-19T11:30:27.897Z,1006.86
2018-12-19T11:31:28.692Z,1006.84
2018-12-19T11:32:29.334Z,1006.80
2018-12-19T11:33:30.136Z,1006.75
2018-12-19T11:34:30.797Z,1006.71
2018-12-19T11:35:31.600Z,1006.75
2018-12-19T11:36:32.235Z,1006.73
2018-12-19T11:37:33.029Z,1006.76
2018-12-19T11:38:33.680Z,1006.71
2018-12-19T11:39:34.537Z,1006.73
2018-12-19T11:40:35.130Z,1006.68
2018-12-19T11:41:38.934Z,1006.71
2018-12-19T11:42:36.464Z,1006.65
2018-12-19T11:43:37.262Z,1006.68
2018-12-19T11:44:37.914Z,1006.64
2018-12-19T11:45:38.716Z,1006.63
2018-12-19T11:46:39.361Z,1006.60
2018-12-19T11:47:40.176Z,1006.58
2018-12-19T11:48:40.821Z,1006.59
2018-12-19T11:49:41.610Z,1006.60
2018-12-19T11:50:42.260Z,1006.59
2018-12-19T11:51:43.047Z,1006.58
2018-12-19T11:52:43.707Z,1006.64
2018-12-19T11:53:44.349Z,1006.61
2018-12-19T11:54:45.007Z,1006.59
2018-12-19T11:55:45.757Z,1006.61
2018-12-19T11:56:46.387Z,1006.62
2018-12-19T11:57:47.192Z,1006.58
2018-12-19T11:58:47.865Z,1006.61
2018-12-19T11:59:48.653Z,1006.62
2018-12-19T12:00:49.297Z,1006.62
2018-12-19T12:01:49.986Z,1006.57
2018-12-19T12:02:50.629Z,1006.59
2018-12-19T12:03:51.347Z,1006.61
2018-12-19T12:04:52.151Z,1006.62
2018-12-19T12:05:52.807Z,1006.60
2018-12-19T12:06:53.511Z,1006.64
2018-12-19T12:07:54.586Z,1006.66
2018-12-19T12:08:55.252Z,1006.62
2018-12-19T12:09:55.930Z,1006.68
2018-12-19T12:10:56.574Z,1006.65
2018-12-19T12:11:57.253Z,1006.65
2018-12-19T12:12:58.009Z,1006.66
2018-12-19T12:13:58.590Z,1006.66
2018-12-19T12:15:00.325Z,1006.65
2018-12-19T12:16:00.965Z,1006.71
2018-12-19T12:17:01.648Z,1006.65
2018-12-19T12:18:02.297Z,1006.64
2018-12-19T12:19:02.993Z,1006.64
2018-12-19T12:20:03.654Z,1006.65
2018-12-19T12:21:04.347Z,1006.68
2018-12-19T12:22:05.023Z,1006.72